Time;durP1;ratioP1;P1;durP2;ratioP2;P2;SDS_P1;SDS_P2;PMS_P1;PMS_P2;Temp;Humidity;BMP_temperature;BMP_pressure;BME280_temperature;BME280_humidity;BME280_pressure;Samples;Min_cycle;Max_cycle;Signal;HPM_P1;HPM_P2
2021/06/12 00:00:39;;;;;;;5.67;5.17;;;;;;;;;;5059842;28;20419;-76
2021/06/12 00:03:06;;;;;;;5.97;5.47;;;;;;;;;;5052277;28;20864;-76
2021/06/12 00:05:32;;;;;;;6.23;5.73;;;;;;;;;;5052216;28;20423;-72
2021/06/12 00:07:59;;;;;;;6.07;5.53;;;;;;;;;;5052255;28;20403;-76
2021/06/12 00:10:35;;;;;;;6.53;5.93;;;;;;;;;;5052105;28;20422;-74
2021/06/12 00:13:02;;;;;;;5.93;5.37;;;;;;;;;;5052237;28;20911;-72
2021/06/12 00:15:28;;;;;;;5.50;5.10;;;;;;;;;;5051900;28;20781;-74
2021/06/12 00:17:56;;;;;;;5.97;5.47;;;;;;;;;;5051893;28;20416;-73
2021/06/12 00:20:27;;;;;;;6.73;6.13;;;;;;;;;;5055620;28;20419;-74
2021/06/12 00:22:54;;;;;;;6.07;5.47;;;;;;;;;;5055920;28;20454;-74
2021/06/12 00:25:22;;;;;;;5.77;5.37;;;;;;;;;;5056133;28;20415;-72
2021/06/12 00:27:48;;;;;;;5.63;5.13;;;;;;;;;;5058682;28;20407;-72
2021/06/12 00:30:15;;;;;;;6.80;6.17;;;;;;;;;;5056663;28;20461;-73
2021/06/12 00:32:42;;;;;;;6.00;5.47;;;;;;;;;;5056107;28;20446;-71
2021/06/12 00:35:09;;;;;;;6.93;5.70;;;;;;;;;;5055764;28;20415;-72
2021/06/12 00:37:35;;;;;;;6.63;5.93;;;;;;;;;;5055741;28;20450;-75
2021/06/12 00:40:02;;;;;;;6.47;5.87;;;;;;;;;;5055870;28;20423;-73
2021/06/12 00:42:28;;;;;;;7.33;6.27;;;;;;;;;;5054160;28;20439;-74
2021/06/12 00:44:54;;;;;;;7.60;6.93;;;;;;;;;;5055423;28;20536;-76
2021/06/12 00:47:20;;;;;;;7.53;6.93;;;;;;;;;;5055399;28;20765;-72
2021/06/12 00:49:46;;;;;;;7.00;6.30;;;;;;;;;;5055525;28;20415;-73
2021/06/12 00:52:12;;;;;;;8.50;7.07;;;;;;;;;;5055489;28;20427;-72
2021/06/12 00:54:38;;;;;;;6.70;6.10;;;;;;;;;;5055386;28;20802;-74
2021/06/12 00:57:05;;;;;;;6.97;6.43;;;;;;;;;;5061587;28;20426;-73
2021/06/12 00:59:32;;;;;;;6.70;6.10;;;;;;;;;;5075327;28;20414;-76
2021/06/12 01:01:58;;;;;;;6.60;5.90;;;;;;;;;;5075109;28;20899;-72
2021/06/12 01:04:24;;;;;;;6.60;6.00;;;;;;;;;;5074876;28;20487;-73
2021/06/12 01:06:51;;;;;;;6.67;6.17;;;;;;;;;;5075044;28;20430;-72
2021/06/12 01:09:24;;;;;;;6.60;6.00;;;;;;;;;;5073549;28;20426;-75
2021/06/12 01:12:00;;;;;;;7.80;7.10;;;;;;;;;;5069751;28;20490;-73
2021/06/12 01:14:26;;;;;;;7.53;6.93;;;;;;;;;;5071208;28;20437;-74
2021/06/12 01:17:01;;;;;;;7.77;6.57;;;;;;;;;;5075018;28;20464;-74
2021/06/12 01:19:50;;;;;;;7.17;6.57;;;;;;;;;;5075013;28;20414;-73
2021/06/12 01:22:27;;;;;;;7.80;7.10;;;;;;;;;;5067681;28;20429;-75
2021/06/12 01:24:56;;;;;;;7.73;7.03;;;;;;;;;;5075310;28;20422;-73
2021/06/12 01:27:41;;;;;;;7.77;7.00;;;;;;;;;;5074875;28;20425;-75
2021/06/12 01:30:16;;;;;;;7.47;6.80;;;;;;;;;;5071856;28;20399;-73
2021/06/12 01:32:51;;;;;;;8.27;7.57;;;;;;;;;;5067540;28;20430;-75
2021/06/12 01:35:35;;;;;;;7.80;7.10;;;;;;;;;;5074990;28;20410;-76
2021/06/12 01:38:02;;;;;;;8.83;7.73;;;;;;;;;;5074561;28;20402;-76
2021/06/12 01:40:32;;;;;;;8.50;7.70;;;;;;;;;;5074364;28;20411;-74
2021/06/12 01:42:59;;;;;;;9.60;8.57;;;;;;;;;;5074073;28;20466;-71
2021/06/12 01:45:26;;;;;;;7.80;7.07;;;;;;;;;;5074392;28;20418;-72
2021/06/12 01:47:55;;;;;;;8.80;8.00;;;;;;;;;;5074522;28;20417;-73
2021/06/12 01:50:22;;;;;;;8.90;7.37;;;;;;;;;;5074251;28;20501;-72
2021/06/12 01:52:48;;;;;;;7.77;6.97;;;;;;;;;;5068292;28;20425;-74
2021/06/12 01:55:16;;;;;;;8.53;7.67;;;;;;;;;;5074552;28;20751;-74
2021/06/12 01:57:43;;;;;;;9.33;8.37;;;;;;;;;;5074417;28;20419;-73
2021/06/12 02:00:10;;;;;;;9.53;8.63;;;;;;;;;;5074260;28;20425;-73
2021/06/12 02:02:36;;;;;;;7.93;7.23;;;;;;;;;;5074034;28;20487;-75
2021/06/12 02:05:03;;;;;;;9.00;8.10;;;;;;;;;;5073791;28;20414;-72
2021/06/12 02:07:30;;;;;;;8.87;8.07;;;;;;;;;;5073878;28;20444;-76
2021/06/12 02:09:56;;;;;;;8.37;7.57;;;;;;;;;;5073906;28;20418;-76
2021/06/12 02:12:22;;;;;;;9.93;8.93;;;;;;;;;;5066590;28;20431;-73
2021/06/12 02:14:49;;;;;;;9.83;8.93;;;;;;;;;;5069014;28;20591;-75
2021/06/12 02:17:16;;;;;;;9.50;8.57;;;;;;;;;;5073621;28;20556;-75
2021/06/12 02:19:42;;;;;;;12.27;9.67;;;;;;;;;;5073704;28;20825;-74
2021/06/12 02:22:09;;;;;;;9.40;8.60;;;;;;;;;;5073896;28;20517;-73
2021/06/12 02:24:35;;;;;;;9.50;8.50;;;;;;;;;;5073133;28;20465;-72
2021/06/12 02:27:02;;;;;;;10.43;8.90;;;;;;;;;;5073870;28;20436;-72
2021/06/12 02:29:28;;;;;;;9.57;8.67;;;;;;;;;;5073420;28;20411;-75
2021/06/12 02:32:21;;;;;;;10.20;9.20;;;;;;;;;;5073573;28;20479;-73
2021/06/12 02:34:47;;;;;;;11.07;9.80;;;;;;;;;;5068907;28;20433;-74
2021/06/12 02:37:13;;;;;;;10.30;9.33;;;;;;;;;;5073252;28;20410;-75
2021/06/12 02:39:39;;;;;;;12.60;11.40;;;;;;;;;;5073438;28;20410;-72
2021/06/12 02:42:05;;;;;;;10.93;9.93;;;;;;;;;;5073142;28;20826;-72
2021/06/12 02:44:31;;;;;;;10.80;9.80;;;;;;;;;;5073254;28;20459;-76
2021/06/12 02:47:01;;;;;;;9.90;8.90;;;;;;;;;;5072950;28;20406;-75
2021/06/12 02:49:32;;;;;;;11.93;10.73;;;;;;;;;;5070351;28;20411;-72
2021/06/12 02:52:02;;;;;;;13.53;12.23;;;;;;;;;;5073068;28;20422;-73
2021/06/12 02:54:30;;;;;;;13.67;12.20;;;;;;;;;;5073054;28;20414;-71
2021/06/12 02:56:56;;;;;;;14.57;12.40;;;;;;;;;;5073321;28;20415;-73
2021/06/12 02:59:23;;;;;;;14.17;12.67;;;;;;;;;;5073192;28;20411;-75
2021/06/12 03:01:50;;;;;;;13.37;11.63;;;;;;;;;;5071682;28;20443;-75
2021/06/12 03:04:17;;;;;;;16.30;13.20;;;;;;;;;;5072815;28;20458;-76
2021/06/12 03:06:44;;;;;;;16.07;14.50;;;;;;;;;;5072671;28;20974;-72
2021/06/12 03:09:13;;;;;;;15.20;13.80;;;;;;;;;;5072731;28;20411;-75
2021/06/12 03:11:39;;;;;;;16.10;14.50;;;;;;;;;;5072163;28;20541;-73
2021/06/12 03:14:05;;;;;;;18.83;16.93;;;;;;;;;;5072509;28;20539;-72
2021/06/12 03:16:31;;;;;;;17.47;15.73;;;;;;;;;;5072711;28;20468;-74
2021/06/12 03:18:59;;;;;;;17.17;15.30;;;;;;;;;;5072329;28;20419;-74
2021/06/12 03:21:26;;;;;;;17.47;15.70;;;;;;;;;;5073091;28;20438;-74
2021/06/12 03:23:54;;;;;;;18.07;15.77;;;;;;;;;;5072599;28;20548;-72
2021/06/12 03:26:21;;;;;;;18.70;16.87;;;;;;;;;;5072980;28;20760;-74
2021/06/12 03:28:47;;;;;;;17.50;15.80;;;;;;;;;;5072482;28;20414;-77
2021/06/12 03:31:14;;;;;;;18.33;15.60;;;;;;;;;;5072692;28;20434;-77
2021/06/12 03:33:40;;;;;;;16.87;15.17;;;;;;;;;;5072490;28;20418;-73
2021/06/12 03:36:07;;;;;;;17.57;15.87;;;;;;;;;;5072569;28;20414;-72
2021/06/12 03:38:35;;;;;;;17.20;15.40;;;;;;;;;;5079512;28;20492;-73
2021/06/12 03:41:01;;;;;;;16.77;15.17;;;;;;;;;;5072476;28;20435;-74
2021/06/12 03:43:27;;;;;;;17.97;15.40;;;;;;;;;;5072349;28;20469;-72
2021/06/12 03:45:58;;;;;;;17.13;15.30;;;;;;;;;;5072639;28;20474;-75
2021/06/12 03:48:25;;;;;;;16.80;15.10;;;;;;;;;;5072458;28;20407;-74
2021/06/12 03:50:54;;;;;;;16.23;14.57;;;;;;;;;;5071051;28;20434;-74
2021/06/12 03:53:21;;;;;;;17.20;15.50;;;;;;;;;;5064509;28;20418;-71
2021/06/12 03:55:50;;;;;;;16.80;14.67;;;;;;;;;;5077970;28;20433;-71
2021/06/12 03:58:17;;;;;;;18.23;13.67;;;;;;;;;;5076278;28;20457;-76
2021/06/12 04:00:46;;;;;;;15.93;14.07;;;;;;;;;;5076722;28;20895;-75
2021/06/12 04:03:12;;;;;;;14.40;12.97;;;;;;;;;;5076141;28;20464;-75
2021/06/12 04:05:38;;;;;;;15.60;13.67;;;;;;;;;;5076802;28;20483;-73
2021/06/12 04:08:04;;;;;;;14.63;13.13;;;;;;;;;;5074369;28;20410;-76
2021/06/12 04:10:30;;;;;;;14.57;13.10;;;;;;;;;;5072592;28;20454;-73
2021/06/12 04:12:57;;;;;;;15.57;14.03;;;;;;;;;;5069589;28;20418;-73
2021/06/12 04:15:23;;;;;;;15.37;13.83;;;;;;;;;;5074126;28;20418;-71
2021/06/12 04:17:57;;;;;;;14.93;13.50;;;;;;;;;;5076346;28;20962;-72
2021/06/12 04:20:24;;;;;;;15.40;13.90;;;;;;;;;;5070098;28;20413;-74
2021/06/12 04:22:50;;;;;;;15.20;13.80;;;;;;;;;;5069295;28;20942;-75
2021/06/12 04:25:16;;;;;;;15.20;13.63;;;;;;;;;;5074774;28;20413;-73
2021/06/12 04:27:42;;;;;;;14.43;13.07;;;;;;;;;;5088431;28;20406;-73
2021/06/12 04:30:08;;;;;;;14.20;12.80;;;;;;;;;;5087307;28;20418;-72
2021/06/12 04:32:34;;;;;;;14.37;12.97;;;;;;;;;;5073569;28;20434;-75
2021/06/12 04:35:00;;;;;;;13.00;11.70;;;;;;;;;;5080834;28;20417;-71
2021/06/12 04:37:26;;;;;;;14.67;11.60;;;;;;;;;;5081468;28;20480;-76
2021/06/12 04:39:52;;;;;;;11.50;10.40;;;;;;;;;;5075699;28;20406;-73
2021/06/12 04:42:18;;;;;;;13.37;11.90;;;;;;;;;;5075665;28;20453;-76
2021/06/12 04:44:44;;;;;;;11.40;10.30;;;;;;;;;;5077929;28;20544;-72
2021/06/12 04:47:10;;;;;;;12.07;10.83;;;;;;;;;;5075479;28;20445;-73
2021/06/12 04:49:36;;;;;;;12.73;11.50;;;;;;;;;;5074903;28;20434;-73
2021/06/12 04:52:02;;;;;;;12.70;11.40;;;;;;;;;;5075396;28;20484;-76
2021/06/12 04:54:29;;;;;;;12.77;11.50;;;;;;;;;;5075126;28;20733;-73
2021/06/12 04:56:55;;;;;;;14.80;12.93;;;;;;;;;;5075972;28;20815;-77
2021/06/12 04:59:20;;;;;;;14.60;12.70;;;;;;;;;;5075317;28;20467;-76
2021/06/12 05:01:46;;;;;;;14.90;12.47;;;;;;;;;;5075248;28;20431;-75
2021/06/12 05:04:12;;;;;;;15.97;14.30;;;;;;;;;;5074734;28;20818;-73
2021/06/12 05:06:38;;;;;;;21.57;16.37;;;;;;;;;;5075335;28;20469;-73
2021/06/12 05:09:05;;;;;;;17.30;14.83;;;;;;;;;;5075094;28;20438;-71
2021/06/12 05:11:31;;;;;;;16.23;14.67;;;;;;;;;;5074374;28;20437;-72
2021/06/12 05:13:57;;;;;;;17.37;15.40;;;;;;;;;;5064099;28;20425;-72
2021/06/12 05:16:23;;;;;;;17.03;15.30;;;;;;;;;;5075130;28;20411;-75
2021/06/12 05:18:49;;;;;;;16.40;14.53;;;;;;;;;;5080549;28;20539;-71
2021/06/12 05:21:15;;;;;;;16.70;14.97;;;;;;;;;;5077923;28;20434;-75
2021/06/12 05:23:41;;;;;;;16.80;15.10;;;;;;;;;;5074542;28;20469;-75
2021/06/12 05:26:08;;;;;;;16.30;14.60;;;;;;;;;;5075440;28;20438;-75
2021/06/12 05:28:34;;;;;;;19.03;15.70;;;;;;;;;;5075441;28;20433;-76
2021/06/12 05:31:00;;;;;;;17.43;15.73;;;;;;;;;;5067137;28;20485;-73
2021/06/12 05:33:27;;;;;;;19.37;16.57;;;;;;;;;;5074231;28;20419;-72
2021/06/12 05:35:56;;;;;;;17.17;15.47;;;;;;;;;;5074552;28;20410;-73
2021/06/12 05:38:22;;;;;;;16.70;14.90;;;;;;;;;;5084637;28;20428;-71
2021/06/12 05:40:51;;;;;;;17.43;15.63;;;;;;;;;;5075089;28;20433;-71
2021/06/12 05:43:17;;;;;;;18.13;16.33;;;;;;;;;;5076927;28;20500;-74
2021/06/12 05:45:44;;;;;;;18.47;16.57;;;;;;;;;;5074650;28;20425;-74
2021/06/12 05:48:10;;;;;;;17.90;15.43;;;;;;;;;;5084148;28;20410;-74
2021/06/12 05:50:36;;;;;;;18.60;16.70;;;;;;;;;;5074236;28;20414;-74
2021/06/12 05:53:02;;;;;;;17.90;16.00;;;;;;;;;;5062344;28;20418;-72
2021/06/12 05:55:28;;;;;;;16.90;15.00;;;;;;;;;;5074762;28;20755;-73
2021/06/12 05:57:54;;;;;;;18.47;16.50;;;;;;;;;;5074287;28;20764;-72
2021/06/12 06:00:20;;;;;;;18.23;16.50;;;;;;;;;;5074083;28;20418;-73
2021/06/12 06:02:46;;;;;;;18.70;15.20;;;;;;;;;;5074004;28;20949;-74
2021/06/12 06:05:13;;;;;;;19.90;17.93;;;;;;;;;;5073906;28;20410;-75
2021/06/12 06:07:39;;;;;;;20.80;18.70;;;;;;;;;;5074053;28;20488;-73
2021/06/12 06:10:05;;;;;;;20.60;18.50;;;;;;;;;;5074046;28;20567;-74
2021/06/12 06:12:31;;;;;;;22.73;20.53;;;;;;;;;;5073710;28;20441;-72
2021/06/12 06:15:07;;;;;;;20.87;18.77;;;;;;;;;;5072255;28;20414;-75
2021/06/12 06:17:32;;;;;;;25.73;20.70;;;;;;;;;;5071980;28;20422;-73
2021/06/12 06:19:58;;;;;;;25.03;22.23;;;;;;;;;;5073746;28;20419;-74
2021/06/12 06:22:25;;;;;;;24.70;21.63;;;;;;;;;;5073819;28;20873;-74
2021/06/12 06:24:50;;;;;;;23.07;20.60;;;;;;;;;;5073456;28;20835;-74
2021/06/12 06:27:17;;;;;;;24.33;21.73;;;;;;;;;;5073760;28;20406;-75
2021/06/12 06:29:43;;;;;;;23.10;20.60;;;;;;;;;;5073505;28;20416;-73
2021/06/12 06:32:09;;;;;;;22.20;19.87;;;;;;;;;;5073507;28;20484;-75
2021/06/12 06:34:35;;;;;;;22.30;20.10;;;;;;;;;;5072023;28;20430;-75
2021/06/12 06:37:01;;;;;;;25.27;22.60;;;;;;;;;;5073777;28;20414;-77
2021/06/12 06:39:27;;;;;;;22.60;20.27;;;;;;;;;;5073257;28;20422;-75
2021/06/12 06:41:53;;;;;;;26.07;23.27;;;;;;;;;;5073506;28;20535;-72
2021/06/12 06:44:19;;;;;;;24.67;22.27;;;;;;;;;;5073322;28;20984;-74
2021/06/12 06:46:45;;;;;;;23.47;20.83;;;;;;;;;;5073108;28;20441;-73
2021/06/12 06:49:11;;;;;;;26.03;22.93;;;;;;;;;;5072924;28;20760;-76
2021/06/12 06:51:37;;;;;;;24.83;20.73;;;;;;;;;;5073082;28;20536;-76
2021/06/12 06:54:03;;;;;;;23.87;21.37;;;;;;;;;;5072952;28;20411;-75
2021/06/12 06:56:29;;;;;;;22.90;20.50;;;;;;;;;;5074000;28;20692;-74
2021/06/12 06:58:55;;;;;;;22.47;20.17;;;;;;;;;;5072850;28;20425;-75
2021/06/12 07:01:21;;;;;;;22.70;20.53;;;;;;;;;;5073044;28;20454;-75
2021/06/12 07:03:50;;;;;;;23.50;21.17;;;;;;;;;;5072736;28;20481;-74
2021/06/12 07:06:16;;;;;;;24.80;22.23;;;;;;;;;;5072892;28;20449;-73
2021/06/12 07:08:42;;;;;;;22.60;20.40;;;;;;;;;;5073128;28;20469;-72
2021/06/12 07:11:08;;;;;;;23.37;20.87;;;;;;;;;;5073065;28;20525;-73
2021/06/12 07:13:34;;;;;;;24.00;21.40;;;;;;;;;;5062170;28;20414;-72
2021/06/12 07:16:01;;;;;;;24.77;22.03;;;;;;;;;;5073097;28;20464;-75
2021/06/12 07:18:27;;;;;;;23.23;20.83;;;;;;;;;;5073007;28;20418;-75
2021/06/12 07:20:53;;;;;;;22.87;20.67;;;;;;;;;;5072629;28;20431;-75
2021/06/12 07:23:19;;;;;;;23.20;20.90;;;;;;;;;;5072573;28;20812;-74
2021/06/12 07:25:45;;;;;;;27.43;23.60;;;;;;;;;;5072715;28;20832;-75
2021/06/12 07:28:12;;;;;;;23.53;20.73;;;;;;;;;;5071794;28;20415;-74
2021/06/12 07:30:42;;;;;;;29.27;21.80;;;;;;;;;;5072784;28;20954;-75
2021/06/12 07:33:08;;;;;;;24.20;21.60;;;;;;;;;;5072464;28;20479;-73
2021/06/12 07:35:34;;;;;;;23.73;21.23;;;;;;;;;;5073114;28;20546;-74
2021/06/12 07:38:01;;;;;;;21.37;19.27;;;;;;;;;;5072654;28;20460;-75
2021/06/12 07:40:27;;;;;;;23.47;20.07;;;;;;;;;;5072764;28;20425;-74
2021/06/12 07:42:53;;;;;;;20.90;18.10;;;;;;;;;;5079686;28;20466;-72
2021/06/12 07:45:19;;;;;;;20.70;18.40;;;;;;;;;;5072639;28;20471;-74
2021/06/12 07:47:45;;;;;;;20.73;17.87;;;;;;;;;;5072381;28;20483;-76
2021/06/12 07:50:11;;;;;;;21.20;18.80;;;;;;;;;;5074258;28;20413;-75
2021/06/12 07:52:37;;;;;;;22.40;20.00;;;;;;;;;;5072281;28;20500;-74
2021/06/12 07:55:04;;;;;;;24.37;20.30;;;;;;;;;;5072254;28;20402;-72
2021/06/12 07:57:30;;;;;;;22.10;19.70;;;;;;;;;;5077362;28;20434;-76
2021/06/12 07:59:56;;;;;;;20.00;17.90;;;;;;;;;;5079685;28;20410;-76
2021/06/12 08:02:22;;;;;;;21.40;19.17;;;;;;;;;;5072412;28;20430;-74
2021/06/12 08:04:48;;;;;;;21.57;19.20;;;;;;;;;;5072275;28;20472;-78
2021/06/12 08:07:15;;;;;;;22.97;19.83;;;;;;;;;;5072201;28;20423;-74
2021/06/12 08:09:41;;;;;;;21.90;19.30;;;;;;;;;;5072637;28;20425;-75
2021/06/12 08:12:07;;;;;;;21.20;19.10;;;;;;;;;;5065021;28;20789;-75
2021/06/12 08:14:33;;;;;;;18.80;16.80;;;;;;;;;;5059129;28;20972;-76
2021/06/12 08:16:59;;;;;;;20.53;18.30;;;;;;;;;;5069663;28;20449;-74
2021/06/12 08:19:25;;;;;;;18.57;16.60;;;;;;;;;;5063939;28;20422;-75
2021/06/12 08:21:51;;;;;;;17.30;15.70;;;;;;;;;;5068620;28;20766;-74
2021/06/12 08:24:17;;;;;;;21.23;17.97;;;;;;;;;;5068918;28;20500;-76
2021/06/12 08:26:43;;;;;;;18.63;16.83;;;;;;;;;;5067482;28;20442;-75
2021/06/12 08:29:09;;;;;;;20.30;17.97;;;;;;;;;;5068114;28;20417;-75
2021/06/12 08:31:35;;;;;;;18.23;16.43;;;;;;;;;;5067577;28;20830;-77
2021/06/12 08:34:02;;;;;;;16.93;15.03;;;;;;;;;;5068175;28;20418;-76
2021/06/12 08:36:28;;;;;;;17.10;15.20;;;;;;;;;;5066917;28;20895;-74
2021/06/12 08:38:54;;;;;;;15.63;13.97;;;;;;;;;;5068275;28;20838;-75
2021/06/12 08:41:20;;;;;;;17.10;15.60;;;;;;;;;;5071415;28;20449;-74
2021/06/12 08:43:47;;;;;;;18.10;14.30;;;;;;;;;;5071596;28;20462;-74
2021/06/12 08:46:13;;;;;;;14.43;12.93;;;;;;;;;;5071842;28;20450;-76
2021/06/12 08:48:40;;;;;;;14.80;12.70;;;;;;;;;;5071813;28;20476;-76
2021/06/12 08:51:06;;;;;;;12.13;10.90;;;;;;;;;;5071747;28;20430;-74
2021/06/12 08:53:32;;;;;;;9.97;9.17;;;;;;;;;;5071513;28;20502;-75
2021/06/12 08:56:01;;;;;;;9.10;8.20;;;;;;;;;;5072450;28;20477;-75
2021/06/12 08:58:27;;;;;;;9.77;8.87;;;;;;;;;;5071460;28;20426;-76
2021/06/12 09:00:54;;;;;;;9.70;7.20;;;;;;;;;;5071572;28;20473;-75
2021/06/12 09:03:25;;;;;;;9.47;8.47;;;;;;;;;;5071077;28;20468;-76
2021/06/12 09:05:51;;;;;;;10.43;7.50;;;;;;;;;;5071415;28;20438;-76
2021/06/12 09:08:18;;;;;;;8.17;6.83;;;;;;;;;;5067540;28;20414;-76
2021/06/12 09:10:49;;;;;;;10.63;7.50;;;;;;;;;;5071379;28;20783;-75
2021/06/12 09:13:15;;;;;;;9.03;6.50;;;;;;;;;;5058367;28;20427;-75
2021/06/12 09:15:41;;;;;;;11.53;6.30;;;;;;;;;;5071206;28;20418;-76
2021/06/12 09:18:07;;;;;;;6.70;5.90;;;;;;;;;;5071066;28;20410;-77
2021/06/12 09:20:33;;;;;;;8.67;5.87;;;;;;;;;;5071536;28;20439;-77
2021/06/12 09:23:18;;;;;;;7.27;5.30;;;;;;;;;;5071032;28;20468;-75
2021/06/12 09:25:46;;;;;;;5.93;5.43;;;;;;;;;;5071287;28;20514;-76
2021/06/12 09:28:12;;;;;;;5.90;5.30;;;;;;;;;;5070920;28;20763;-78
2021/06/12 09:30:38;;;;;;;5.77;5.10;;;;;;;;;;5071308;28;20411;-78
2021/06/12 09:33:05;;;;;;;9.00;5.30;;;;;;;;;;5071025;28;20780;-78
2021/06/12 09:35:35;;;;;;;9.80;5.73;;;;;;;;;;5071128;28;20421;-77
2021/06/12 09:38:02;;;;;;;4.93;4.43;;;;;;;;;;5070646;28;20958;-76
2021/06/12 09:40:32;;;;;;;7.20;4.80;;;;;;;;;;5071335;28;20475;-78
2021/06/12 09:43:00;;;;;;;6.90;5.30;;;;;;;;;;5067758;28;20471;-75
2021/06/12 09:45:26;;;;;;;8.20;4.70;;;;;;;;;;5070765;28;20415;-76
2021/06/12 09:48:06;;;;;;;6.40;4.20;;;;;;;;;;5070439;28;20414;-76
2021/06/12 09:50:32;;;;;;;5.87;4.20;;;;;;;;;;5070527;28;20409;-77
2021/06/12 09:53:09;;;;;;;4.40;3.20;;;;;;;;;;5069862;28;20514;-77
2021/06/12 09:55:36;;;;;;;5.33;3.30;;;;;;;;;;5071637;28;20420;-75
2021/06/12 09:58:02;;;;;;;3.60;2.80;;;;;;;;;;5069297;28;20480;-76
2021/06/12 10:00:29;;;;;;;6.47;3.20;;;;;;;;;;5070594;28;20418;-76
2021/06/12 10:02:57;;;;;;;5.50;3.17;;;;;;;;;;5070217;28;20806;-76
2021/06/12 10:05:25;;;;;;;7.40;3.47;;;;;;;;;;5070285;28;20858;-76
2021/06/12 10:07:51;;;;;;;6.47;3.30;;;;;;;;;;5069885;28;20497;-77
2021/06/12 10:10:17;;;;;;;5.03;3.07;;;;;;;;;;5070371;28;20426;-75
2021/06/12 10:12:46;;;;;;;4.27;2.80;;;;;;;;;;5066149;28;20491;-77
2021/06/12 10:15:12;;;;;;;4.03;2.60;;;;;;;;;;5070435;28;20425;-76
2021/06/12 10:17:49;;;;;;;4.50;2.90;;;;;;;;;;5069829;28;20423;-75
2021/06/12 10:20:17;;;;;;;6.93;2.47;;;;;;;;;;5070192;28;20736;-76
2021/06/12 10:22:45;;;;;;;4.17;2.77;;;;;;;;;;5070086;28;20499;-76
2021/06/12 10:25:12;;;;;;;4.93;2.40;;;;;;;;;;5070022;28;20417;-76
2021/06/12 10:27:41;;;;;;;8.07;2.60;;;;;;;;;;5069029;28;20445;-76
2021/06/12 10:30:11;;;;;;;3.40;2.50;;;;;;;;;;5069705;28;20418;-76
2021/06/12 10:32:42;;;;;;;4.93;2.50;;;;;;;;;;5067134;28;20881;-76
2021/06/12 10:35:09;;;;;;;3.67;2.00;;;;;;;;;;5067485;28;20911;-76
2021/06/12 10:37:54;;;;;;;2.57;2.27;;;;;;;;;;5069518;28;20969;-75
2021/06/12 10:40:34;;;;;;;3.90;2.00;;;;;;;;;;5069619;28;20429;-75
2021/06/12 10:43:14;;;;;;;5.03;2.70;;;;;;;;;;5068002;28;20426;-78
2021/06/12 10:45:40;;;;;;;5.10;2.77;;;;;;;;;;5069626;28;20446;-78
2021/06/12 10:48:06;;;;;;;5.60;2.83;;;;;;;;;;5069231;28;20462;-76
2021/06/12 10:50:45;;;;;;;5.60;2.20;;;;;;;;;;5069518;28;20416;-76
2021/06/12 10:53:33;;;;;;;5.10;2.47;;;;;;;;;;5069117;28;20970;-76
2021/06/12 10:55:59;;;;;;;2.30;2.10;;;;;;;;;;5070674;28;20439;-76
2021/06/12 10:58:31;;;;;;;4.00;2.53;;;;;;;;;;5069049;28;20456;-76
2021/06/12 11:01:06;;;;;;;5.10;2.90;;;;;;;;;;5069406;28;20515;-76
2021/06/12 11:03:45;;;;;;;4.13;2.80;;;;;;;;;;5068783;28;21063;-76
2021/06/12 11:09:13;;;;;;;4.57;2.30;;;;;;;;;;5063649;28;20838;-74
2021/06/12 11:11:39;;;;;;;3.20;2.20;;;;;;;;;;5064003;28;20443;-73
2021/06/12 11:14:23;;;;;;;4.20;2.20;;;;;;;;;;5068610;28;21229;-76
2021/06/12 11:17:11;;;;;;;5.40;2.70;;;;;;;;;;5069534;28;20406;-80
2021/06/12 11:19:40;;;;;;;5.90;2.60;;;;;;;;;;5069796;28;20449;-77
2021/06/12 11:22:25;;;;;;;3.43;2.50;;;;;;;;;;5069173;28;20526;-74
2021/06/12 11:24:52;;;;;;;3.93;2.70;;;;;;;;;;5068665;28;20464;-73
2021/06/12 11:27:45;;;;;;;3.60;2.30;;;;;;;;;;5069444;28;20415;-74
2021/06/12 11:30:11;;;;;;;3.73;2.47;;;;;;;;;;5062354;28;20432;-75
2021/06/12 11:32:38;;;;;;;4.73;2.30;;;;;;;;;;5068815;28;20429;-76
2021/06/12 11:35:04;;;;;;;5.10;2.40;;;;;;;;;;5068774;28;20943;-81
2021/06/12 11:37:31;;;;;;;6.87;2.50;;;;;;;;;;5069297;28;20410;-77
2021/06/12 11:39:58;;;;;;;4.97;3.00;;;;;;;;;;5065494;28;20432;-75
2021/06/12 11:42:26;;;;;;;4.23;2.60;;;;;;;;;;5063651;28;20536;-76
2021/06/12 11:44:52;;;;;;;4.00;2.53;;;;;;;;;;5068037;28;20505;-75
2021/06/12 11:47:29;;;;;;;4.07;2.30;;;;;;;;;;5063355;28;20447;-74
2021/06/12 11:49:55;;;;;;;2.80;2.40;;;;;;;;;;5066722;28;20849;-76
2021/06/12 11:52:21;;;;;;;3.40;2.40;;;;;;;;;;5060884;28;20950;-76
2021/06/12 11:54:47;;;;;;;3.97;2.47;;;;;;;;;;5067238;28;20422;-75
2021/06/12 11:57:13;;;;;;;3.50;2.40;;;;;;;;;;5063643;28;20464;-76
2021/06/12 11:59:40;;;;;;;3.90;2.33;;;;;;;;;;5068470;28;20414;-75
2021/06/12 12:02:07;;;;;;;5.23;2.80;;;;;;;;;;5068601;28;20434;-77
2021/06/12 12:04:35;;;;;;;5.27;2.50;;;;;;;;;;5076933;28;20493;-76
2021/06/12 12:07:02;;;;;;;4.20;2.43;;;;;;;;;;5067311;28;20437;-76
2021/06/12 12:09:33;;;;;;;3.80;2.53;;;;;;;;;;5068351;28;20415;-76
2021/06/12 12:12:04;;;;;;;4.60;2.90;;;;;;;;;;5066037;28;20457;-77
2021/06/12 12:14:33;;;;;;;5.60;2.53;;;;;;;;;;5069303;28;20411;-75
2021/06/12 12:16:59;;;;;;;4.43;3.03;;;;;;;;;;5072503;28;20441;-75
2021/06/12 12:19:25;;;;;;;4.30;2.57;;;;;;;;;;5071760;28;20411;-75
2021/06/12 12:21:53;;;;;;;3.93;2.70;;;;;;;;;;5066833;28;20426;-75
2021/06/12 12:24:19;;;;;;;5.00;2.40;;;;;;;;;;5061651;28;20463;-76
2021/06/12 12:26:55;;;;;;;2.73;2.10;;;;;;;;;;5072286;28;20418;-76
2021/06/12 12:29:24;;;;;;;4.80;2.27;;;;;;;;;;5067771;28;20425;-75
2021/06/12 12:31:51;;;;;;;7.90;2.53;;;;;;;;;;5070940;28;20438;-76
2021/06/12 12:34:28;;;;;;;2.93;1.97;;;;;;;;;;5071330;28;20908;-77
2021/06/12 12:36:55;;;;;;;5.43;2.40;;;;;;;;;;5072301;28;20459;-76
2021/06/12 12:39:21;;;;;;;5.90;2.00;;;;;;;;;;5071614;28;20410;-77
2021/06/12 12:41:57;;;;;;;3.03;2.03;;;;;;;;;;5071696;28;20438;-75
2021/06/12 12:44:23;;;;;;;5.63;2.10;;;;;;;;;;5074896;28;20465;-77
2021/06/12 12:46:50;;;;;;;3.97;2.10;;;;;;;;;;5071963;28;20919;-75
2021/06/12 12:49:21;;;;;;;3.77;2.30;;;;;;;;;;5071608;28;20417;-77
2021/06/12 12:51:59;;;;;;;4.50;2.50;;;;;;;;;;5071659;28;20437;-73
2021/06/12 12:54:26;;;;;;;4.07;2.00;;;;;;;;;;5068671;28;21204;-74
2021/06/12 12:56:55;;;;;;;3.67;2.10;;;;;;;;;;5071963;28;20414;-74
2021/06/12 12:59:38;;;;;;;4.70;2.30;;;;;;;;;;5070224;28;20972;-75
2021/06/12 13:02:09;;;;;;;3.40;2.20;;;;;;;;;;5071802;28;20464;-74
2021/06/12 13:04:35;;;;;;;5.33;2.30;;;;;;;;;;5063295;28;20489;-74
2021/06/12 13:07:22;;;;;;;3.77;2.40;;;;;;;;;;5068074;28;20434;-76
2021/06/12 13:10:05;;;;;;;5.60;2.30;;;;;;;;;;5071659;28;20764;-76
2021/06/12 13:12:31;;;;;;;4.00;2.20;;;;;;;;;;5070596;28;20437;-75
2021/06/12 13:14:58;;;;;;;5.40;2.30;;;;;;;;;;5068235;28;21171;-74
2021/06/12 13:17:25;;;;;;;4.50;2.33;;;;;;;;;;5071468;28;20423;-75
2021/06/12 13:19:51;;;;;;;2.60;2.00;;;;;;;;;;5071028;28;20446;-74
2021/06/12 13:22:26;;;;;;;3.40;2.07;;;;;;;;;;5068473;28;20441;-75
2021/06/12 13:24:53;;;;;;;4.93;2.67;;;;;;;;;;5074456;28;21067;-75
2021/06/12 13:27:31;;;;;;;5.13;2.73;;;;;;;;;;5071119;28;20424;-75
2021/06/12 13:29:57;;;;;;;3.93;2.47;;;;;;;;;;5077389;28;20420;-75
2021/06/12 13:32:29;;;;;;;4.60;2.60;;;;;;;;;;5081125;28;20437;-75
2021/06/12 13:34:56;;;;;;;4.87;2.87;;;;;;;;;;5071373;28;20977;-75
2021/06/12 13:37:23;;;;;;;5.47;2.73;;;;;;;;;;5081565;28;21139;-75
2021/06/12 13:39:59;;;;;;;5.80;2.60;;;;;;;;;;5070610;28;20806;-76
2021/06/12 13:42:34;;;;;;;4.20;2.40;;;;;;;;;;5070703;28;20516;-76
2021/06/12 13:45:11;;;;;;;4.53;3.03;;;;;;;;;;5070767;28;20567;-76
2021/06/12 13:47:38;;;;;;;4.87;3.20;;;;;;;;;;5070881;28;20882;-75
2021/06/12 13:50:06;;;;;;;5.50;3.07;;;;;;;;;;5070806;28;20411;-74
2021/06/12 13:52:32;;;;;;;7.00;2.80;;;;;;;;;;5070403;28;20435;-76
2021/06/12 13:54:59;;;;;;;5.43;2.40;;;;;;;;;;5070560;28;20784;-76
2021/06/12 13:57:25;;;;;;;6.13;2.50;;;;;;;;;;5070753;28;20434;-76
2021/06/12 13:59:51;;;;;;;8.13;2.57;;;;;;;;;;5070517;28;20415;-77
2021/06/12 14:02:18;;;;;;;7.63;2.90;;;;;;;;;;5070217;28;20435;-74
2021/06/12 14:04:44;;;;;;;4.97;2.23;;;;;;;;;;5070147;28;20814;-75
2021/06/12 14:07:10;;;;;;;3.80;2.20;;;;;;;;;;5063458;28;20443;-75
2021/06/12 14:09:36;;;;;;;6.43;2.67;;;;;;;;;;5070227;28;20415;-76
2021/06/12 14:12:03;;;;;;;12.10;2.50;;;;;;;;;;5066223;28;21640;-75
2021/06/12 14:14:29;;;;;;;6.57;2.53;;;;;;;;;;5070174;28;20430;-74
2021/06/12 14:16:55;;;;;;;4.30;2.30;;;;;;;;;;5069673;28;20453;-75
2021/06/12 14:19:21;;;;;;;5.37;2.80;;;;;;;;;;5069965;28;20422;-75
2021/06/12 14:21:50;;;;;;;4.73;2.33;;;;;;;;;;5069887;28;20434;-75
2021/06/12 14:24:16;;;;;;;4.83;2.50;;;;;;;;;;5069934;28;20934;-75
2021/06/12 14:26:50;;;;;;;3.37;2.23;;;;;;;;;;5070013;28;20445;-75
2021/06/12 14:29:17;;;;;;;5.30;2.60;;;;;;;;;;5070324;28;20411;-75
2021/06/12 14:31:44;;;;;;;6.80;2.77;;;;;;;;;;5069836;28;20445;-76
2021/06/12 14:34:10;;;;;;;7.07;2.80;;;;;;;;;;5069798;28;20419;-76
2021/06/12 14:36:36;;;;;;;7.70;2.73;;;;;;;;;;5069730;28;20451;-75
2021/06/12 14:39:02;;;;;;;3.83;2.63;;;;;;;;;;5069264;28;20535;-76